createdAt,value
2016-02-10T00:00:31.355Z,929.92
2016-02-10T00:01:31.295Z,929.85
2016-02-10T00:02:31.251Z,929.93
2016-02-10T00:03:31.191Z,929.91
2016-02-10T00:04:31.131Z,929.93
2016-02-10T00:05:31.073Z,930.06
2016-02-10T00:06:31.028Z,929.93
2016-02-10T00:07:30.970Z,929.98
2016-02-10T00:08:30.911Z,929.9
2016-02-10T00:09:30.851Z,929.85
2016-02-10T00:10:30.808Z,929.88
2016-02-10T00:11:30.748Z,929.97
2016-02-10T00:12:30.735Z,929.92
2016-02-10T00:13:30.706Z,929.91
2016-02-10T00:14:30.600Z,930.05
2016-02-10T00:15:30.525Z,929.98
2016-02-10T00:16:30.470Z,929.93
2016-02-10T00:17:30.411Z,930.07
2016-02-10T00:18:30.351Z,930.2
2016-02-10T00:19:30.353Z,930.18
2016-02-10T00:20:30.278Z,930.19
2016-02-10T00:21:30.219Z,930.15
2016-02-10T00:22:30.189Z,930.06
2016-02-10T00:23:30.114Z,930.02
2016-02-10T00:24:30.055Z,930.1
2016-02-10T00:25:29.951Z,930.16
2016-02-10T00:26:29.908Z,930.18
2016-02-10T00:27:29.848Z,930.16
2016-02-10T00:28:29.787Z,930.11
2016-02-10T00:29:29.728Z,930.19
2016-02-10T00:30:29.684Z,930.21
2016-02-10T00:31:29.623Z,930.19
2016-02-10T00:32:29.565Z,930.21
2016-02-10T00:33:29.505Z,930.15
2016-02-10T00:34:29.446Z,930.2
2016-02-10T00:35:29.401Z,930.16
2016-02-10T00:36:29.420Z,930.16
2016-02-10T00:37:29.298Z,930.12
2016-02-10T00:38:29.237Z,930.07
2016-02-10T00:39:29.178Z,930.15
2016-02-10T00:40:29.152Z,930.22
2016-02-10T00:41:29.076Z,930.33
2016-02-10T00:42:29.049Z,930.39
2016-02-10T00:43:28.957Z,930.36
2016-02-10T00:44:28.912Z,930.44
2016-02-10T00:45:28.916Z,930.39
2016-02-10T00:46:28.793Z,930.43
2016-02-10T00:47:28.749Z,930.42
2016-02-10T00:48:28.690Z,930.51
2016-02-10T00:49:28.661Z,930.56
2016-02-10T00:50:28.617Z,930.58
2016-02-10T00:51:28.557Z,930.62
2016-02-10T00:52:28.450Z,930.54
2016-02-10T00:53:28.421Z,930.54
2016-02-10T00:54:28.393Z,930.46
2016-02-10T00:55:28.302Z,930.61
2016-02-10T00:56:28.227Z,930.53
2016-02-10T00:57:28.198Z,930.58
2016-02-10T00:58:28.153Z,930.62
2016-02-10T00:59:28.078Z,930.64
2016-02-10T01:00:28.019Z,930.59
2016-02-10T01:01:27.958Z,930.6
2016-02-10T01:02:27.883Z,930.65
2016-02-10T01:03:27.824Z,930.73
2016-02-10T01:04:27.780Z,930.79
2016-02-10T01:05:27.719Z,930.7
2016-02-10T01:06:27.659Z,930.74
2016-02-10T01:07:27.616Z,930.75
2016-02-10T01:08:27.540Z,930.76
2016-02-10T01:09:27.497Z,930.75
2016-02-10T01:10:27.438Z,930.81
2016-02-10T01:11:27.378Z,930.69
2016-02-10T01:12:27.318Z,930.71
2016-02-10T01:13:27.290Z,930.67
2016-02-10T01:14:27.198Z,930.65
2016-02-10T01:15:27.139Z,930.62
2016-02-10T01:16:27.079Z,930.66
2016-02-10T01:17:27.035Z,930.74
2016-02-10T01:18:26.975Z,930.71
2016-02-10T01:19:26.931Z,930.65
2016-02-10T01:20:26.871Z,930.57
2016-02-10T01:21:26.843Z,930.72
2016-02-10T01:22:26.783Z,930.72
2016-02-10T01:23:26.691Z,930.73
2016-02-10T01:24:26.647Z,930.6
2016-02-10T01:25:26.619Z,930.69
2016-02-10T01:26:26.531Z,930.63
2016-02-10T01:27:26.471Z,930.68
2016-02-10T01:28:26.396Z,930.72
2016-02-10T01:29:26.367Z,930.7
2016-02-10T01:30:26.291Z,930.58
2016-02-10T01:31:26.232Z,930.64
2016-02-10T01:32:26.172Z,930.52
2016-02-10T01:33:26.112Z,930.64
2016-02-10T01:34:26.132Z,930.69
2016-02-10T01:35:26.009Z,930.76
2016-02-10T01:36:25.950Z,930.71
2016-02-10T01:37:25.889Z,930.67
2016-02-10T01:38:25.830Z,930.71
2016-02-10T01:39:25.785Z,930.67
2016-02-10T01:40:25.708Z,930.71
2016-02-10T01:41:25.664Z,930.7
2016-02-10T01:42:25.604Z,930.68
2016-02-10T01:43:25.562Z,930.69
2016-02-10T01:44:25.485Z,930.57
2016-02-10T01:45:25.425Z,930.56
2016-02-10T01:46:25.398Z,930.64
2016-02-10T01:47:25.306Z,930.65
2016-02-10T01:48:25.261Z,930.62
2016-02-10T01:49:25.187Z,930.6
2016-02-10T01:50:25.142Z,930.66
2016-02-10T01:51:25.084Z,930.55
2016-02-10T01:52:25.008Z,930.62
2016-02-10T01:53:24.964Z,930.52
2016-02-10T01:54:24.935Z,930.64
2016-02-10T01:55:24.859Z,930.56
2016-02-10T01:56:24.862Z,930.63
2016-02-10T01:57:24.739Z,930.68
2016-02-10T01:58:24.681Z,930.66
2016-02-10T01:59:24.621Z,930.7
2016-02-10T02:00:24.593Z,930.73
2016-02-10T02:01:24.518Z,930.8
2016-02-10T02:02:24.942Z,930.75
2016-02-10T02:03:24.398Z,930.76
2016-02-10T02:04:24.354Z,930.81
2016-02-10T02:05:24.262Z,930.81
2016-02-10T02:06:24.218Z,930.89
2016-02-10T02:07:24.145Z,930.88
2016-02-10T02:08:24.101Z,930.86
2016-02-10T02:09:24.056Z,930.84
2016-02-10T02:10:23.981Z,930.91
2016-02-10T02:11:23.970Z,930.91
2016-02-10T02:12:23.863Z,930.78
2016-02-10T02:13:23.804Z,930.83
2016-02-10T02:14:23.760Z,930.75
2016-02-10T02:15:23.715Z,930.68
2016-02-10T02:16:23.655Z,930.8
2016-02-10T02:17:23.643Z,930.87
2016-02-10T02:18:23.520Z,930.81
2016-02-10T02:19:23.476Z,930.88
2016-02-10T02:20:23.416Z,930.86
2016-02-10T02:21:23.356Z,930.76
2016-02-10T02:22:23.312Z,930.9
2016-02-10T02:23:23.253Z,930.82
2016-02-10T02:24:23.176Z,930.91
2016-02-10T02:25:23.133Z,930.95
2016-02-10T02:26:23.057Z,930.89
2016-02-10T02:27:23.029Z,930.9
2016-02-10T02:28:22.954Z,930.96
2016-02-10T02:29:22.895Z,930.97
2016-02-10T02:30:22.866Z,930.92
2016-02-10T02:31:22.807Z,930.99
2016-02-10T02:32:22.715Z,930.94
2016-02-10T02:33:22.671Z,931.01
2016-02-10T02:34:22.689Z,930.96
2016-02-10T02:35:22.567Z,930.99
2016-02-10T02:36:22.538Z,930.93
2016-02-10T02:37:22.448Z,931.04
2016-02-10T02:38:22.403Z,930.91
2016-02-10T02:39:22.343Z,930.95
2016-02-10T02:40:22.284Z,930.99
2016-02-10T02:41:22.239Z,930.93
2016-02-10T02:42:22.164Z,931.04
2016-02-10T02:43:22.092Z,930.95
2016-02-10T02:44:22.031Z,931.07
2016-02-10T02:45:21.972Z,931.07
2016-02-10T02:46:21.943Z,930.97
2016-02-10T02:47:21.867Z,931.02
2016-02-10T02:48:21.823Z,931.03
2016-02-10T02:49:21.764Z,931.01
2016-02-10T02:50:21.703Z,931
2016-02-10T02:51:21.644Z,930.95
2016-02-10T02:52:21.582Z,930.98
2016-02-10T02:53:21.513Z,930.92
2016-02-10T02:54:21.457Z,930.88
2016-02-10T02:55:21.370Z,930.94
2016-02-10T02:56:21.299Z,930.95
2016-02-10T02:57:21.230Z,930.99
2016-02-10T02:58:21.165Z,931.01
2016-02-10T02:59:21.118Z,931.02
2016-02-10T03:00:21.055Z,931.01
2016-02-10T03:01:21.007Z,931.07
2016-02-10T03:02:20.927Z,931.12
2016-02-10T03:03:20.882Z,931.14
2016-02-10T03:04:20.835Z,931.07
2016-02-10T03:05:20.759Z,931.07
2016-02-10T03:06:20.698Z,931.09
2016-02-10T03:07:20.636Z,931.15
2016-02-10T03:08:20.593Z,931.08
2016-02-10T03:09:20.517Z,931.05
2016-02-10T03:10:20.472Z,931
2016-02-10T03:11:20.413Z,931.03
2016-02-10T03:12:20.352Z,931.14
2016-02-10T03:13:20.283Z,931.15
2016-02-10T03:14:20.239Z,931.19
2016-02-10T03:15:20.179Z,931.17
2016-02-10T03:16:20.119Z,931.15
2016-02-10T03:17:20.075Z,931.18
2016-02-10T03:18:20.015Z,931.12
2016-02-10T03:19:19.956Z,931.09
2016-02-10T03:20:19.883Z,931.16
2016-02-10T03:21:19.822Z,931.12
2016-02-10T03:22:19.779Z,931.1
2016-02-10T03:23:19.703Z,931.1
2016-02-10T03:24:19.659Z,931.14
2016-02-10T03:25:19.583Z,931.17
2016-02-10T03:26:19.540Z,931.24
2016-02-10T03:27:19.480Z,931.26
2016-02-10T03:28:19.420Z,931.16
2016-02-10T03:29:19.360Z,931.1
2016-02-10T03:30:19.300Z,931.11
2016-02-10T03:31:19.257Z,931.14
2016-02-10T03:32:19.196Z,931.16
2016-02-10T03:33:19.136Z,931.17
2016-02-10T03:34:19.077Z,931.18
2016-02-10T03:35:19.017Z,931.23
2016-02-10T03:36:18.973Z,931.08
2016-02-10T03:37:18.898Z,931.15
2016-02-10T03:38:18.853Z,931.18
2016-02-10T03:39:18.793Z,931.19
2016-02-10T03:40:18.749Z,931.18
2016-02-10T03:41:18.689Z,931.22
2016-02-10T03:42:18.629Z,931.19
2016-02-10T03:43:18.632Z,931.12
2016-02-10T03:44:18.515Z,931.12
2016-02-10T03:45:18.456Z,931.11
2016-02-10T03:46:18.396Z,931.14
2016-02-10T03:47:18.336Z,931.07
2016-02-10T03:48:18.276Z,931.02
2016-02-10T03:49:18.265Z,931.05
2016-02-10T03:50:18.158Z,931
2016-02-10T03:51:18.114Z,930.91
2016-02-10T03:52:18.070Z,930.88
2016-02-10T03:53:18.010Z,930.83
2016-02-10T03:54:17.935Z,930.89
2016-02-10T03:55:17.891Z,930.89
2016-02-10T03:56:17.831Z,930.89
2016-02-10T03:57:17.771Z,930.85
2016-02-10T03:58:17.758Z,930.92
2016-02-10T03:59:17.652Z,930.9
2016-02-10T04:00:17.654Z,930.98
2016-02-10T04:01:17.532Z,930.9
2016-02-10T04:02:17.473Z,930.89
2016-02-10T04:03:17.475Z,930.91
2016-02-10T04:04:17.353Z,930.97
2016-02-10T04:05:17.370Z,930.93
2016-02-10T04:06:17.265Z,930.93
2016-02-10T04:07:17.189Z,930.95
2016-02-10T04:08:17.145Z,930.96
2016-02-10T04:09:17.071Z,931.03
2016-02-10T04:10:17.010Z,931.05
2016-02-10T04:11:16.982Z,931.12
2016-02-10T04:12:16.906Z,931.19
2016-02-10T04:13:16.846Z,931.19
2016-02-10T04:14:16.802Z,931.19
2016-02-10T04:15:16.744Z,931.18
2016-02-10T04:16:16.669Z,931.26
2016-02-10T04:17:16.640Z,931.27
2016-02-10T04:18:16.581Z,931.29
2016-02-10T04:19:16.505Z,931.23
2016-02-10T04:20:16.445Z,931.29
2016-02-10T04:21:16.386Z,931.26
2016-02-10T04:22:16.326Z,931.34
2016-02-10T04:23:16.281Z,931.39
2016-02-10T04:24:16.269Z,931.37
2016-02-10T04:25:16.194Z,931.35
2016-02-10T04:26:16.138Z,931.28
2016-02-10T04:27:16.063Z,931.29
2016-02-10T04:28:16.019Z,931.26
2016-02-10T04:29:15.974Z,931.29
2016-02-10T04:30:15.868Z,931.31
2016-02-10T04:31:15.793Z,931.23
2016-02-10T04:32:15.748Z,931.18
2016-02-10T04:33:15.685Z,931.17
2016-02-10T04:34:15.626Z,931.15
2016-02-10T04:35:15.597Z,931.18
2016-02-10T04:36:15.507Z,931.19
2016-02-10T04:37:15.478Z,931.17
2016-02-10T04:38:15.402Z,931.13
2016-02-10T04:39:15.343Z,931.19
2016-02-10T04:40:15.298Z,931.22
2016-02-10T04:41:15.239Z,931.18
2016-02-10T04:42:15.163Z,931.25
2016-02-10T04:43:15.151Z,931.15
2016-02-10T04:44:15.060Z,931.14
2016-02-10T04:45:15.031Z,931.13
2016-02-10T04:46:14.944Z,931.2
2016-02-10T04:47:14.885Z,931.18
2016-02-10T04:48:14.856Z,931.24
2016-02-10T04:49:14.765Z,931.26
2016-02-10T04:50:14.752Z,931.24
2016-02-10T04:51:14.677Z,931.25
2016-02-10T04:52:14.585Z,931.18
2016-02-10T04:53:14.526Z,931.22
2016-02-10T04:54:14.467Z,931.15
2016-02-10T04:55:14.422Z,931.21
2016-02-10T04:56:14.348Z,931.18
2016-02-10T04:57:14.319Z,931.09
2016-02-10T04:58:14.243Z,931.11
2016-02-10T04:59:14.183Z,931.04
2016-02-10T05:00:14.170Z,931.08
2016-02-10T05:01:14.080Z,931.13
2016-02-10T05:02:14.005Z,931.08
2016-02-10T05:03:14.008Z,931.07
2016-02-10T05:04:13.931Z,931.1
2016-02-10T05:05:13.842Z,931.08
2016-02-10T05:06:13.781Z,931.12
2016-02-10T05:07:13.736Z,931.06
2016-02-10T05:08:13.662Z,931.1
2016-02-10T05:09:13.617Z,931.07
2016-02-10T05:10:13.542Z,931.08
2016-02-10T05:11:13.486Z,931.06
2016-02-10T05:12:13.425Z,931.09
2016-02-10T05:13:13.366Z,931.16
2016-02-10T05:14:13.322Z,931.08
2016-02-10T05:15:13.261Z,931.01
2016-02-10T05:16:13.201Z,931.05
2016-02-10T05:17:13.142Z,931.12
2016-02-10T05:18:13.104Z,931.1
2016-02-10T05:19:13.029Z,931.11
2016-02-10T05:20:12.985Z,931.1
2016-02-10T05:21:12.925Z,931.11
2016-02-10T05:22:12.866Z,931.07
2016-02-10T05:23:12.806Z,931.12
2016-02-10T05:24:12.745Z,931.22
2016-02-10T05:25:12.670Z,931.07
2016-02-10T05:26:12.642Z,931.13
2016-02-10T05:27:12.551Z,931.12
2016-02-10T05:28:12.507Z,931.14
2016-02-10T05:29:12.463Z,931.17
2016-02-10T05:30:12.403Z,931.16
2016-02-10T05:31:12.344Z,931.14
2016-02-10T05:32:12.284Z,931.2
2016-02-10T05:33:12.223Z,931.17
2016-02-10T05:34:12.149Z,931.12
2016-02-10T05:35:12.089Z,931.19
2016-02-10T05:36:12.029Z,931.13
2016-02-10T05:37:11.986Z,931.16
2016-02-10T05:38:11.927Z,931.19
2016-02-10T05:39:11.852Z,931.11
2016-02-10T05:40:11.808Z,931.21
2016-02-10T05:41:11.747Z,931.19
2016-02-10T05:42:11.734Z,931.17
2016-02-10T05:43:11.644Z,931.22
2016-02-10T05:44:11.568Z,931.2
2016-02-10T05:45:11.601Z,931.24
2016-02-10T05:46:11.480Z,931.24
2016-02-10T05:47:11.404Z,931.2
2016-02-10T05:48:11.362Z,931.18
2016-02-10T05:49:11.287Z,931.24
2016-02-10T05:50:11.226Z,931.22
2016-02-10T05:51:11.167Z,931.23
2016-02-10T05:52:11.122Z,931.34
2016-02-10T05:53:11.062Z,931.24
2016-02-10T05:54:11.004Z,931.25
2016-02-10T05:55:10.959Z,931.17
2016-02-10T05:56:10.868Z,931.24
2016-02-10T05:57:10.870Z,931.26
2016-02-10T05:58:10.764Z,931.24
2016-02-10T05:59:10.704Z,931.22
2016-02-10T06:00:10.628Z,931.23
2016-02-10T06:01:10.584Z,931.27
2016-02-10T06:02:10.571Z,931.26
2016-02-10T06:03:10.482Z,931.34
2016-02-10T06:04:10.422Z,931.25
2016-02-10T06:05:10.346Z,931.26
2016-02-10T06:06:10.302Z,931.27
2016-02-10T06:07:10.242Z,931.3
2016-02-10T06:08:10.183Z,931.28
2016-02-10T06:09:10.106Z,931.35
2016-02-10T06:10:10.063Z,931.36
2016-02-10T06:11:10.003Z,931.37
2016-02-10T06:12:09.961Z,931.42
2016-02-10T06:13:09.886Z,931.37
2016-02-10T06:14:09.857Z,931.44
2016-02-10T06:15:09.797Z,931.4
2016-02-10T06:16:09.724Z,931.5
2016-02-10T06:17:09.648Z,931.49
2016-02-10T06:18:09.588Z,931.54
2016-02-10T06:19:09.575Z,931.55
2016-02-10T06:20:09.485Z,931.59
2016-02-10T06:21:09.426Z,931.58
2016-02-10T06:22:09.460Z,931.63
2016-02-10T06:23:09.415Z,931.63
2016-02-10T06:24:09.245Z,931.68
2016-02-10T06:25:09.202Z,931.71
2016-02-10T06:26:09.142Z,931.71
2016-02-10T06:27:09.082Z,931.67
2016-02-10T06:28:09.023Z,931.75
2016-02-10T06:29:08.963Z,931.8
2016-02-10T06:30:08.919Z,931.81
2016-02-10T06:31:08.859Z,931.85
2016-02-10T06:32:08.768Z,931.85
2016-02-10T06:33:08.724Z,931.87
2016-02-10T06:34:08.680Z,931.94
2016-02-10T06:35:08.620Z,931.93
2016-02-10T06:36:08.545Z,931.9
2016-02-10T06:37:08.516Z,932
2016-02-10T06:38:08.425Z,931.9
2016-02-10T06:39:08.365Z,931.97
2016-02-10T06:40:08.321Z,932.01
2016-02-10T06:41:08.276Z,931.99
2016-02-10T06:42:08.217Z,932.06
2016-02-10T06:43:08.157Z,932.1
2016-02-10T06:44:08.081Z,932.03
2016-02-10T06:45:08.038Z,932.04
2016-02-10T06:46:08.040Z,932.07
2016-02-10T06:47:08.015Z,932.1
2016-02-10T06:48:07.845Z,932.12
2016-02-10T06:49:07.817Z,932.11
2016-02-10T06:50:07.757Z,932.14
2016-02-10T06:51:07.995Z,932.12
2016-02-10T06:52:07.622Z,932.11
2016-02-10T06:53:07.577Z,932.18
2016-02-10T06:54:07.503Z,932.12
2016-02-10T06:55:07.443Z,932.11
2016-02-10T06:56:07.400Z,932.17
2016-02-10T06:57:07.340Z,932.1
2016-02-10T06:58:07.280Z,932.09
2016-02-10T06:59:07.221Z,932.18
2016-02-10T07:00:07.161Z,932.14
2016-02-10T07:01:07.179Z,932.15
2016-02-10T07:02:07.041Z,932.21
2016-02-10T07:03:06.981Z,932.24
2016-02-10T07:04:06.938Z,932.31
2016-02-10T07:05:06.864Z,932.32
2016-02-10T07:06:06.819Z,932.33
2016-02-10T07:07:06.761Z,932.34
2016-02-10T07:08:06.731Z,932.37
2016-02-10T07:09:06.750Z,932.39
2016-02-10T07:10:06.581Z,932.45
2016-02-10T07:11:06.506Z,932.38
2016-02-10T07:12:06.569Z,932.47
2016-02-10T07:13:06.435Z,932.43
2016-02-10T07:14:06.359Z,932.51
2016-02-10T07:15:06.299Z,932.48
2016-02-10T07:16:06.240Z,932.48
2016-02-10T07:17:06.163Z,932.46
2016-02-10T07:18:06.111Z,932.47
2016-02-10T07:19:06.067Z,932.53
2016-02-10T07:20:06.007Z,932.51
2016-02-10T07:21:05.947Z,932.58
2016-02-10T07:22:05.887Z,932.55
2016-02-10T07:23:05.827Z,932.64
2016-02-10T07:24:05.783Z,932.58
2016-02-10T07:25:05.708Z,932.56
2016-02-10T07:26:05.663Z,932.59
2016-02-10T07:27:05.604Z,932.61
2016-02-10T07:28:05.544Z,932.57
2016-02-10T07:29:05.468Z,932.56
2016-02-10T07:30:05.409Z,932.67
2016-02-10T07:31:05.350Z,932.61
2016-02-10T07:32:05.306Z,932.62
2016-02-10T07:33:05.246Z,932.66
2016-02-10T07:34:05.202Z,932.63
2016-02-10T07:35:05.127Z,932.64
2016-02-10T07:36:05.066Z,932.64
2016-02-10T07:37:05.053Z,932.64
2016-02-10T07:38:04.949Z,932.7
2016-02-10T07:39:04.904Z,932.65
2016-02-10T07:40:04.860Z,932.73
2016-02-10T07:41:04.785Z,932.79
2016-02-10T07:42:04.725Z,932.77
2016-02-10T07:43:04.665Z,932.86
2016-02-10T07:44:04.731Z,932.83
2016-02-10T07:45:04.593Z,932.84
2016-02-10T07:46:04.502Z,932.9
2016-02-10T07:47:04.661Z,932.91
2016-02-10T07:48:04.368Z,932.94
2016-02-10T07:49:04.323Z,932.94
2016-02-10T07:50:04.249Z,932.98
2016-02-10T07:51:04.204Z,932.91
2016-02-10T07:52:04.145Z,933.05
2016-02-10T07:53:04.085Z,933
2016-02-10T07:54:04.041Z,932.97
2016-02-10T07:55:03.966Z,933
2016-02-10T07:56:03.983Z,933.02
2016-02-10T07:57:03.861Z,932.97
2016-02-10T07:58:03.801Z,933.02
2016-02-10T07:59:03.726Z,933.03
2016-02-10T08:00:03.665Z,933.05
2016-02-10T08:01:03.622Z,933.08
2016-02-10T08:02:03.593Z,933.09
2016-02-10T08:03:03.504Z,933.15
2016-02-10T08:04:03.445Z,933.1
2016-02-10T08:05:03.400Z,933.1
2016-02-10T08:06:03.342Z,933.14
2016-02-10T08:07:03.283Z,933.2
2016-02-10T08:08:03.238Z,933.2
2016-02-10T08:09:03.178Z,933.17
2016-02-10T08:10:03.260Z,933.26
2016-02-10T08:11:03.044Z,933.23
2016-02-10T08:12:02.999Z,933.27
2016-02-10T08:13:02.924Z,933.26
2016-02-10T08:14:02.882Z,933.25
2016-02-10T08:15:02.822Z,933.23
2016-02-10T08:16:02.779Z,933.28
2016-02-10T08:17:02.703Z,933.21
2016-02-10T08:18:02.659Z,933.28
2016-02-10T08:19:02.573Z,933.37
2016-02-10T08:20:02.982Z,933.34
2016-02-10T08:21:02.468Z,933.41
2016-02-10T08:22:02.424Z,933.32
2016-02-10T08:23:02.350Z,933.4
2016-02-10T08:24:02.352Z,933.49
2016-02-10T08:25:02.246Z,933.41
2016-02-10T08:26:02.265Z,933.42
2016-02-10T08:27:02.126Z,933.39
2016-02-10T08:28:02.067Z,933.38
2016-02-10T08:29:02.008Z,933.39
2016-02-10T08:30:01.963Z,933.42
2016-02-10T08:31:01.889Z,933.41
2016-02-10T08:32:01.829Z,933.42
2016-02-10T08:33:01.847Z,933.45
2016-02-10T08:34:01.742Z,933.42
2016-02-10T08:35:01.744Z,933.43
2016-02-10T08:36:01.589Z,933.41
2016-02-10T08:37:01.578Z,933.43
2016-02-10T08:38:01.502Z,933.44
2016-02-10T08:39:01.426Z,933.4
2016-02-10T08:40:01.399Z,933.42
2016-02-10T08:41:01.354Z,933.42
2016-02-10T08:42:01.794Z,933.42
2016-02-10T08:43:01.203Z,933.45
2016-02-10T08:44:01.222Z,933.44
2016-02-10T08:45:01.163Z,933.43
2016-02-10T08:46:01.056Z,933.43
2016-02-10T08:47:01.028Z,933.39
2016-02-10T08:48:00.921Z,933.41
2016-02-10T08:49:00.909Z,933.4
2016-02-10T08:50:00.824Z,933.42
2016-02-10T08:51:00.749Z,933.43
2016-02-10T08:52:00.719Z,933.47
2016-02-10T08:53:00.879Z,933.45
2016-02-10T08:54:00.585Z,933.51
2016-02-10T08:55:00.541Z,933.52
2016-02-10T08:56:00.466Z,933.52
2016-02-10T08:57:00.406Z,933.54
2016-02-10T08:58:00.409Z,933.54
2016-02-10T08:59:00.334Z,933.52
2016-02-10T09:00:00.242Z,933.6
2016-02-10T09:01:00.230Z,933.63
2016-02-10T09:02:00.140Z,933.61
2016-02-10T09:03:00.079Z,933.59
2016-02-10T09:04:00.020Z,933.6
2016-02-10T09:04:59.944Z,933.6
2016-02-10T09:05:59.995Z,933.54
2016-02-10T09:06:59.934Z,933.67
2016-02-10T09:07:59.781Z,933.61
2016-02-10T09:08:59.736Z,933.6
2016-02-10T09:09:59.676Z,933.59
2016-02-10T09:10:59.742Z,933.63
2016-02-10T09:11:59.619Z,933.64
2016-02-10T09:12:59.528Z,933.65
2016-02-10T09:13:59.500Z,933.66
2016-02-10T09:14:59.426Z,933.68
2016-02-10T09:15:59.365Z,933.71
2016-02-10T09:16:59.290Z,933.69
2016-02-10T09:17:59.245Z,933.69
2016-02-10T09:18:59.170Z,933.69
2016-02-10T09:19:59.111Z,933.72
2016-02-10T09:20:59.055Z,933.71
2016-02-10T09:21:59.042Z,933.7
2016-02-10T09:22:58.983Z,933.74
2016-02-10T09:23:58.907Z,933.74
2016-02-10T09:24:58.832Z,933.75
2016-02-10T09:25:58.772Z,933.77
2016-02-10T09:26:58.760Z,933.67
2016-02-10T09:27:58.653Z,933.71
2016-02-10T09:28:58.640Z,933.74
2016-02-10T09:29:58.563Z,933.75
2016-02-10T09:30:58.521Z,933.77
2016-02-10T09:31:58.492Z,933.87
2016-02-10T09:32:58.402Z,933.81
2016-02-10T09:33:58.342Z,933.8
2016-02-10T09:34:58.344Z,933.76
2016-02-10T09:35:58.222Z,933.79
2016-02-10T09:36:58.178Z,933.72
2016-02-10T09:37:58.118Z,933.8
2016-02-10T09:38:58.058Z,933.77
2016-02-10T09:39:58.045Z,933.82
2016-02-10T09:40:57.939Z,933.75
2016-02-10T09:41:57.958Z,933.77
2016-02-10T09:42:57.835Z,933.78
2016-02-10T09:43:57.916Z,933.79
2016-02-10T09:44:57.716Z,933.82
2016-02-10T09:45:57.688Z,933.81
2016-02-10T09:46:57.611Z,933.79
2016-02-10T09:47:57.568Z,933.82
2016-02-10T09:48:57.618Z,933.81
2016-02-10T09:49:57.466Z,933.8
2016-02-10T09:50:57.375Z,933.87
2016-02-10T09:51:57.299Z,933.83
2016-02-10T09:52:57.272Z,933.87
2016-02-10T09:53:57.276Z,933.89
2016-02-10T09:54:57.247Z,933.89
2016-02-10T09:55:57.140Z,933.88
2016-02-10T09:56:57.034Z,933.9
2016-02-10T09:57:56.986Z,933.89
2016-02-10T09:58:56.927Z,933.91
2016-02-10T09:59:56.852Z,933.9
2016-02-10T10:00:56.807Z,933.97
2016-02-10T10:01:56.778Z,934.01
2016-02-10T10:02:56.702Z,934.04
2016-02-10T10:03:56.643Z,934.01
2016-02-10T10:04:56.582Z,934.05
2016-02-10T10:05:56.618Z,934.06
2016-02-10T10:06:56.449Z,934.12
2016-02-10T10:07:56.405Z,934.08
2016-02-10T10:08:56.376Z,934.1
2016-02-10T10:09:56.300Z,934.07
2016-02-10T10:10:56.241Z,934.01
2016-02-10T10:11:56.181Z,934.03
2016-02-10T10:12:56.153Z,934.16
2016-02-10T10:13:56.079Z,934.17
2016-02-10T10:14:56.018Z,934.15
2016-02-10T10:15:55.943Z,934.23
2016-02-10T10:16:55.963Z,934.14
2016-02-10T10:17:55.841Z,934.14
2016-02-10T10:18:55.796Z,934.24
2016-02-10T10:19:55.737Z,934.22
2016-02-10T10:20:55.677Z,934.26
2016-02-10T10:21:55.663Z,934.27
2016-02-10T10:22:55.559Z,934.3
2016-02-10T10:23:55.499Z,934.31
2016-02-10T10:24:55.502Z,934.28
2016-02-10T10:25:55.412Z,934.31
2016-02-10T10:26:55.351Z,934.34
2016-02-10T10:27:55.385Z,934.26
2016-02-10T10:28:55.231Z,934.32
2016-02-10T10:29:55.172Z,934.34
2016-02-10T10:30:55.159Z,934.26
2016-02-10T10:31:55.084Z,934.3
2016-02-10T10:32:55.258Z,934.28
2016-02-10T10:33:54.981Z,934.35
2016-02-10T10:34:54.937Z,934.28
2016-02-10T10:35:54.846Z,934.38
2016-02-10T10:36:54.785Z,934.41
2016-02-10T10:37:54.742Z,934.39
2016-02-10T10:38:54.729Z,934.43
2016-02-10T10:39:54.793Z,934.42
2016-02-10T10:40:54.578Z,934.44
2016-02-10T10:41:54.503Z,934.51
2016-02-10T10:42:54.490Z,934.31
2016-02-10T10:43:54.414Z,934.44
2016-02-10T10:44:54.355Z,934.41
2016-02-10T10:45:54.295Z,934.46
2016-02-10T10:46:54.235Z,934.44
2016-02-10T10:47:54.175Z,934.47
2016-02-10T10:48:54.100Z,934.45
2016-02-10T10:49:54.087Z,934.42
2016-02-10T10:50:54.154Z,934.42
2016-02-10T10:51:54.021Z,934.46
2016-02-10T10:52:53.948Z,934.4
2016-02-10T10:53:53.919Z,934.49
2016-02-10T10:54:53.797Z,934.46
2016-02-10T10:55:53.768Z,934.49
2016-02-10T10:56:53.646Z,934.52
2016-02-10T10:57:53.649Z,934.51
2016-02-10T10:58:53.543Z,934.53
2016-02-10T10:59:53.483Z,934.5
2016-02-10T11:00:53.438Z,934.5
2016-02-10T11:01:53.363Z,934.53
2016-02-10T11:02:53.319Z,934.52
2016-02-10T11:03:53.571Z,934.59
2016-02-10T11:04:53.231Z,934.55
2016-02-10T11:05:53.155Z,934.51
2016-02-10T11:06:53.080Z,934.59
2016-02-10T11:07:53.036Z,934.52
2016-02-10T11:08:52.992Z,934.53
2016-02-10T11:09:52.916Z,934.48
2016-02-10T11:10:52.872Z,934.52
2016-02-10T11:11:52.796Z,934.52
2016-02-10T11:12:53.096Z,934.5
2016-02-10T11:13:52.708Z,934.55
2016-02-10T11:14:52.648Z,934.46
2016-02-10T11:15:52.591Z,934.43
2016-02-10T11:16:52.562Z,934.45
2016-02-10T11:17:52.472Z,934.39
2016-02-10T11:18:52.411Z,934.4
2016-02-10T11:19:52.338Z,934.31
2016-02-10T11:20:52.340Z,934.44
2016-02-10T11:21:52.296Z,934.44
2016-02-10T11:22:52.190Z,934.47
2016-02-10T11:23:52.116Z,934.5
2016-02-10T11:24:52.087Z,934.38
2016-02-10T11:25:52.028Z,934.38
2016-02-10T11:26:52.061Z,934.45
2016-02-10T11:27:51.923Z,934.46
2016-02-10T11:28:51.848Z,934.38
2016-02-10T11:29:51.788Z,934.37
2016-02-10T11:30:51.744Z,934.35
2016-02-10T11:31:51.669Z,934.41
2016-02-10T11:32:51.626Z,934.32
2016-02-10T11:33:51.581Z,934.4
2016-02-10T11:34:51.602Z,934.44
2016-02-10T11:35:51.480Z,934.34
2016-02-10T11:36:51.388Z,934.33
2016-02-10T11:37:51.328Z,934.4
2016-02-10T11:38:51.331Z,934.38
2016-02-10T11:39:51.255Z,934.38
2016-02-10T11:40:51.164Z,934.41
2016-02-10T11:41:51.105Z,934.37
2016-02-10T11:42:51.044Z,934.34
2016-02-10T11:43:51.001Z,934.34
2016-02-10T11:44:50.972Z,934.3
2016-02-10T11:45:50.897Z,934.4
2016-02-10T11:46:50.852Z,934.38
2016-02-10T11:47:50.777Z,934.31
2016-02-10T11:48:50.733Z,934.27
2016-02-10T11:49:50.673Z,934.25
2016-02-10T11:50:50.616Z,934.35
2016-02-10T11:51:50.541Z,934.31
2016-02-10T11:52:50.560Z,934.41
2016-02-10T11:53:50.438Z,934.27
2016-02-10T11:54:50.378Z,934.38
2016-02-10T11:55:50.333Z,934.42
2016-02-10T11:56:50.274Z,934.39
2016-02-10T11:57:50.230Z,934.43
2016-02-10T11:58:50.181Z,934.31
2016-02-10T11:59:50.155Z,934.4
2016-02-10T12:00:50.036Z,934.34
2016-02-10T12:01:49.993Z,934.41
2016-02-10T12:02:49.887Z,934.33
2016-02-10T12:03:49.801Z,934.34
2016-02-10T12:04:49.876Z,934.31
2016-02-10T12:05:49.796Z,934.38
2016-02-10T12:06:49.622Z,934.35
2016-02-10T12:07:49.557Z,934.22
2016-02-10T12:08:49.494Z,934.36
2016-02-10T12:09:49.449Z,934.18
2016-02-10T12:10:49.387Z,934.36
2016-02-10T12:11:49.325Z,934.35
2016-02-10T12:12:49.295Z,934.35
2016-02-10T12:13:49.218Z,934.35
2016-02-10T12:14:49.174Z,934.36
2016-02-10T12:15:49.098Z,934.31
2016-02-10T12:16:49.050Z,934.39
2016-02-10T12:17:48.975Z,934.4
2016-02-10T12:18:48.946Z,934.38
2016-02-10T12:19:48.870Z,934.5
2016-02-10T12:20:48.841Z,934.4
2016-02-10T12:21:48.765Z,934.39
2016-02-10T12:22:48.695Z,934.45
2016-02-10T12:23:48.634Z,934.33
2016-02-10T12:24:48.590Z,934.37
2016-02-10T12:25:48.547Z,934.29
2016-02-10T12:26:48.502Z,934.28
2016-02-10T12:27:48.427Z,934.19
2016-02-10T12:28:48.351Z,934.28
2016-02-10T12:29:48.510Z,934.23
2016-02-10T12:30:48.466Z,934.25